WXM80 ListenWXM80 Stop

You find our weather info also at:

UK Metoffice

WeatherCloud

Weather Underground

Northeastern Weather Network

AWEKAS

Citizen Weather Observer Program (CWOP)

HAMweather, WeatherForYou, PWS Weather


Weather Underground History page Text

Daily Summary for August 18, 2017 Units:  English    Metric   Both
« Previous Day
Next Day »
Daily Weekly Monthly Yearly Custom
  High: Low: Average:
Temperature: 84.2 °F 70.6 °F 76.9 °F
Dew Point: 79.1 °F 68.8 °F 74.7 °F
Humidity: 98 % 82 % 93 %
Wind Speed: 6.0 mph 0.0 mph 1 mph
Wind Gust: 12.0 mph - -
Wind:- - South
Pressure: 29.93 in 29.71 in -
Precipitation: 1.69 in    
Historical Graphs
 
 
Tabular Data for August 18, 2017
Time Temperature Dew Point Pressure Wind Wind Speed Wind Gust Humidity Rainfall Rate (Hourly)
00:03 70.6 °F 68.8 °F 29.93 in Calm   1.2 mph 94 % 0.00 in
00:08 70.8 °F 69.0 °F 29.92 in SE 0.3 mph 2.3 mph 94 % 0.00 in
00:13 71.0 °F 69.5 °F 29.92 in SE 1.0 mph 1.2 mph 95 % 0.00 in
00:18 71.2 °F 69.7 °F 29.92 in SE 0.1 mph 1.0 mph 95 % 0.00 in
00:24 71.4 °F 69.9 °F 29.91 in SE 1.3 mph 3.5 mph 95 % 0.00 in
00:29 71.5 °F 70.0 °F 29.92 in Calm   1.2 mph 95 % 0.00 in
00:34 71.7 °F 70.2 °F 29.92 in SE 0.3 mph 1.2 mph 95 % 0.00 in
00:39 71.7 °F 70.2 °F 29.92 in Calm     95 % 0.00 in
00:44 71.9 °F 70.4 °F 29.91 in Calm     95 % 0.00 in
00:49 72.0 °F 70.5 °F 29.91 in SE 0.2 mph 3.5 mph 95 % 0.00 in
00:54 72.1 °F 70.6 °F 29.91 in Calm   1.2 mph 95 % 0.00 in
00:59 72.1 °F 70.6 °F 29.91 in Calm     95 % 0.00 in
01:04 72.2 °F 70.7 °F 29.90 in Calm   1.0 mph 95 % 0.00 in
01:09 72.2 °F 70.7 °F 29.90 in SE 0.6 mph 3.0 mph 95 % 0.00 in
01:14 72.3 °F 70.8 °F 29.90 in Calm     95 % 0.00 in
01:19 72.4 °F 70.9 °F 29.90 in Calm   1.2 mph 95 % 0.00 in
01:24 72.5 °F 71.0 °F 29.90 in SE 0.2 mph 1.2 mph 95 % 0.00 in
01:29 72.6 °F 71.1 °F 29.90 in SE 0.7 mph 2.3 mph 95 % 0.00 in
01:35 72.7 °F 71.2 °F 29.89 in SE 1.7 mph 3.5 mph 95 % 0.00 in
01:40 72.8 °F 71.3 °F 29.89 in SE 0.2 mph 2.0 mph 95 % 0.00 in
01:44 72.9 °F 71.4 °F 29.89 in SE 1.1 mph 3.5 mph 95 % 0.00 in
01:49 73.0 °F 71.5 °F 29.89 in SE 1.3 mph 3.5 mph 95 % 0.00 in
01:54 73.0 °F 71.5 °F 29.88 in SE 0.7 mph 2.0 mph 95 % 0.00 in
01:59 73.1 °F 71.6 °F 29.88 in Calm     95 % 0.00 in
02:04 73.1 °F 71.6 °F 29.88 in Calm   1.2 mph 95 % 0.00 in
02:09 73.1 °F 71.6 °F 29.88 in Calm   2.3 mph 95 % 0.00 in
02:14 73.1 °F 71.6 °F 29.88 in Calm     95 % 0.00 in
02:19 73.1 °F 71.6 °F 29.88 in SE 0.2 mph   95 % 0.00 in
02:24 73.2 °F 71.7 °F 29.87 in SE 0.6 mph 2.3 mph 95 % 0.00 in
02:29 73.3 °F 71.8 °F 29.87 in SE 0.3 mph 3.5 mph 95 % 0.00 in
02:34 73.4 °F 71.9 °F 29.87 in SSE 2.6 mph 6.9 mph 95 % 0.00 in
02:39 73.5 °F 72.0 °F 29.87 in Calm     95 % 0.00 in
02:45 73.5 °F 72.0 °F 29.87 in Calm     95 % 0.00 in
02:50 73.5 °F 72.0 °F 29.87 in SE 0.5 mph 2.3 mph 95 % 0.00 in
02:55 73.6 °F 72.1 °F 29.87 in Calm     95 % 0.00 in
03:00 73.7 °F 72.2 °F 29.87 in Calm     95 % 0.00 in
03:05 73.7 °F 72.2 °F 29.87 in Calm     95 % 0.00 in
03:10 73.7 °F 72.2 °F 29.87 in Calm     95 % 0.00 in
03:15 73.7 °F 72.2 °F 29.87 in Calm     95 % 0.00 in
03:20 73.7 °F 72.2 °F 29.87 in Calm     95 % 0.00 in
03:25 73.7 °F 72.2 °F 29.87 in Calm     95 % 0.00 in
03:30 73.8 °F 72.3 °F 29.87 in SE 0.4 mph 2.3 mph 95 % 0.00 in
03:35 73.8 °F 72.3 °F 29.87 in Calm     95 % 0.00 in
03:40 73.9 °F 72.4 °F 29.87 in Calm     95 % 0.00 in
03:45 73.9 °F 72.4 °F 29.87 in Calm   1.2 mph 95 % 0.00 in
03:50 74.0 °F 72.5 °F 29.86 in SE 0.7 mph 3.5 mph 95 % 0.00 in
03:55 74.2 °F 72.7 °F 29.86 in SE 0.2 mph 1.2 mph 95 % 0.00 in
04:00 74.3 °F 72.8 °F 29.86 in SSE 0.7 mph 1.2 mph 95 % 0.00 in
04:05 74.4 °F 72.9 °F 29.86 in Calm   1.2 mph 95 % 0.00 in
04:10 74.6 °F 72.8 °F 29.86 in Calm   2.3 mph 94 % 0.00 in
04:15 74.7 °F 72.9 °F 29.86 in Calm   1.2 mph 94 % 0.00 in
04:20 74.8 °F 73.0 °F 29.86 in SSE 0.1 mph 2.3 mph 94 % 0.00 in
04:25 74.9 °F 72.7 °F 29.87 in SSE 0.1 mph 2.0 mph 93 % 0.00 in
04:30 74.9 °F 72.7 °F 29.86 in SSE 0.8 mph 3.0 mph 93 % 0.00 in
04:35 75.1 °F 72.9 °F 29.86 in SSE 0.8 mph 3.0 mph 93 % 0.00 in
04:40 75.1 °F 72.9 °F 29.86 in SSE 0.4 mph 3.5 mph 93 % 0.00 in
04:45 75.2 °F 72.7 °F 29.86 in SSE 0.8 mph 2.3 mph 92 % 0.00 in
04:50 75.2 °F 72.7 °F 29.86 in SSE 0.3 mph 1.2 mph 92 % 0.00 in
04:55 75.3 °F 72.8 °F 29.86 in SE 1.5 mph 2.3 mph 92 % 0.00 in
05:00 75.3 °F 72.8 °F 29.86 in SE 0.6 mph 2.0 mph 92 % 0.00 in
05:05 75.3 °F 72.8 °F 29.86 in SE 1.1 mph 3.5 mph 92 % 0.00 in
05:10 75.3 °F 72.5 °F 29.86 in SSE 0.1 mph 2.3 mph 91 % 0.00 in
05:16 75.4 °F 72.6 °F 29.86 in SE 1.0 mph 6.0 mph 91 % 0.00 in
05:21 75.4 °F 72.6 °F 29.85 in Calm   1.2 mph 91 % 0.00 in
05:26 75.4 °F 72.6 °F 29.85 in SSE 0.2 mph 1.2 mph 91 % 0.00 in
05:31 75.5 °F 72.7 °F 29.85 in SSE 1.0 mph 4.0 mph 91 % 0.00 in
05:36 75.5 °F 72.7 °F 29.85 in SSE 1.6 mph 3.5 mph 91 % 0.00 in
05:41 75.4 °F 72.6 °F 29.85 in SE 1.0 mph 3.5 mph 91 % 0.00 in
05:46 75.4 °F 72.6 °F 29.85 in SE 1.0 mph 5.0 mph 91 % 0.00 in
05:51 75.4 °F 72.6 °F 29.85 in SE 5.0 mph 9.0 mph 91 % 0.00 in
05:56 75.4 °F 72.6 °F 29.85 in SE 2.0 mph 8.0 mph 91 % 0.00 in
06:01 75.4 °F 72.6 °F 29.85 in SE 1.0 mph 5.8 mph 91 % 0.00 in
06:06 75.4 °F 72.3 °F 29.85 in SSE 1.0 mph 6.0 mph 90 % 0.00 in
06:11 75.3 °F 72.5 °F 29.85 in SE 2.0 mph 7.0 mph 91 % 0.00 in
06:16 75.3 °F 72.2 °F 29.85 in SE 2.0 mph 6.0 mph 90 % 0.00 in
06:21 75.3 °F 72.2 °F 29.85 in Calm   5.0 mph 90 % 0.00 in
06:26 75.3 °F 72.2 °F 29.85 in SE 1.0 mph 5.0 mph 90 % 0.00 in
06:31 75.3 °F 72.2 °F 29.85 in SE 1.0 mph 7.0 mph 90 % 0.00 in
06:36 75.3 °F 72.2 °F 29.85 in Calm   4.0 mph 90 % 0.00 in
06:41 75.2 °F 72.1 °F 29.85 in Calm   6.0 mph 90 % 0.00 in
06:46 75.3 °F 72.1 °F 29.85 in Calm   6.0 mph 90 % 0.00 in
06:51 75.3 °F 72.2 °F 29.85 in SSE 1.0 mph 5.0 mph 90 % 0.00 in
06:56 75.3 °F 72.2 °F 29.86 in SSE 1.0 mph 5.0 mph 90 % 0.00 in
07:01 75.3 °F 72.2 °F 29.85 in SE 0.4 mph 1.2 mph 90 % 0.00 in
07:06 75.3 °F 72.2 °F 29.85 in SE 0.7 mph 9.2 mph 90 % 0.00 in
07:11 75.3 °F 72.2 °F 29.85 in South 2.0 mph 4.0 mph 90 % 0.00 in
07:16 75.4 °F 72.3 °F 29.85 in SE 0.2 mph 1.2 mph 90 % 0.00 in
07:21 75.5 °F 72.4 °F 29.85 in SSE 2.0 mph 5.0 mph 90 % 0.00 in
07:26 75.6 °F 72.5 °F 29.85 in SSE 3.0 mph 4.6 mph 90 % 0.00 in
07:31 75.7 °F 72.6 °F 29.84 in SSE 1.4 mph 3.5 mph 90 % 0.00 in
07:36 75.8 °F 72.3 °F 29.84 in Calm   1.2 mph 89 % 0.00 in
07:41 75.9 °F 72.4 °F 29.84 in SSE 1.5 mph 3.5 mph 89 % 0.00 in
07:46 76.0 °F 72.5 °F 29.84 in SE 2.5 mph 5.8 mph 89 % 0.00 in
07:51 76.1 °F 72.6 °F 29.84 in South 2.3 mph 4.6 mph 89 % 0.00 in
07:56 76.1 °F 72.6 °F 29.84 in SSE 0.1 mph 2.3 mph 89 % 0.00 in
08:01 76.1 °F 73.0 °F 29.84 in ESE 1.0 mph 5.0 mph 90 % 0.00 in
08:06 76.1 °F 73.0 °F 29.84 in SSE 2.1 mph 5.8 mph 90 % 0.00 in
08:07 76.1 °F 73.0 °F 29.84 in SSE 1.7 mph 5.8 mph 90 % 0.00 in
08:12 76.1 °F 73.0 °F 29.84 in South 1.4 mph 4.6 mph 90 % 0.00 in
08:17 76.2 °F 73.1 °F 29.84 in Calm   2.3 mph 90 % 0.00 in
08:22 76.3 °F 73.5 °F 29.83 in SE 0.2 mph 3.5 mph 91 % 0.00 in
08:27 76.4 °F 73.2 °F 29.84 in SE 0.5 mph 2.3 mph 90 % 0.00 in
08:32 76.4 °F 73.6 °F 29.84 in SSW 1.6 mph 6.0 mph 91 % 0.00 in
08:37 76.4 °F 73.6 °F 29.84 in WSW 0.8 mph 3.5 mph 91 % 0.00 in
08:42 76.4 °F 73.6 °F 29.84 in SSE 2.2 mph 4.6 mph 91 % 0.02 in
08:47 76.3 °F 73.8 °F 29.84 in WSW 0.4 mph   92 % 0.03 in
08:52 76.2 °F 73.7 °F 29.84 in Calm   2.3 mph 92 % 0.04 in
08:57 76.2 °F 73.7 °F 29.83 in Calm   1.2 mph 92 % 0.08 in
09:02 76.1 °F 73.6 °F 29.83 in Calm   2.3 mph 92 % 0.11 in
09:07 76.0 °F 73.5 °F 29.84 in Calm   1.2 mph 92 % 0.13 in
09:12 76.0 °F 73.5 °F 29.84 in Calm     92 % 0.18 in
09:17 75.9 °F 73.4 °F 29.84 in Calm   1.2 mph 92 % 0.26 in
09:22 75.9 °F 73.7 °F 29.85 in Calm     93 % 0.30 in
09:27 75.8 °F 73.6 °F 29.83 in SE 1.0 mph 3.5 mph 93 % 0.35 in
09:32 75.6 °F 73.8 °F 29.83 in ESE 0.7 mph 2.3 mph 94 % 0.98 in
09:37 75.5 °F 73.7 °F 29.83 in Calm     94 % 1.17 in
09:42 75.4 °F 73.6 °F 29.83 in SE 1.1 mph 3.5 mph 94 % 1.27 in
09:43 75.4 °F 73.6 °F 29.83 in SE 0.5 mph 3.5 mph 94 % 1.27 in
09:48 75.4 °F 73.6 °F 29.83 in South 1.0 mph 3.5 mph 94 % 1.32 in
09:53 75.4 °F 73.9 °F 29.83 in SSE 0.2 mph 2.3 mph 95 % 1.36 in
09:58 75.3 °F 73.8 °F 29.83 in SE 2.2 mph 4.6 mph 95 % 1.40 in
10:03 75.3 °F 73.8 °F 29.83 in SE 0.6 mph 2.3 mph 95 % 1.41 in
10:08 75.3 °F 73.8 °F 29.83 in SE 2.6 mph 6.9 mph 95 % 1.43 in
10:13 75.3 °F 74.1 °F 29.83 in SE 1.0 mph 3.5 mph 96 % 1.39 in
10:18 75.2 °F 74.0 °F 29.83 in SE 0.1 mph 1.2 mph 96 % 1.31 in
10:23 75.2 °F 74.0 °F 29.83 in Calm   1.2 mph 96 % 1.28 in
10:28 75.2 °F 74.0 °F 29.83 in SE 0.7 mph 1.2 mph 96 % 1.04 in
10:33 75.3 °F 74.1 °F 29.83 in Calm     96 % 0.55 in
10:39 75.4 °F 74.2 °F 29.83 in Calm   1.2 mph 96 % 0.39 in
10:44 75.5 °F 74.3 °F 29.83 in Calm     96 % 0.29 in
10:49 75.6 °F 74.4 °F 29.82 in SSE 0.1 mph 1.2 mph 96 % 0.22 in
10:54 75.8 °F 74.9 °F 29.83 in SSE 0.7 mph 2.3 mph 97 % 0.19 in
10:59 75.9 °F 75.0 °F 29.83 in SW 1.0 mph 4.6 mph 97 % 0.10 in
11:04 76.1 °F 75.2 °F 29.83 in SSW 0.6 mph 2.3 mph 97 % 0.06 in
11:09 76.2 °F 75.3 °F 29.83 in SSW 0.1 mph 1.2 mph 97 % 0.02 in
11:14 76.3 °F 75.4 °F 29.82 in SSW 0.1 mph 2.3 mph 97 % 0.02 in
11:19 76.6 °F 75.7 °F 29.82 in West 0.4 mph 2.3 mph 97 % 0.02 in
11:24 76.9 °F 76.0 °F 29.82 in West 0.2 mph 2.3 mph 97 % 0.01 in
11:29 77.1 °F 76.2 °F 29.83 in SSW 2.3 mph 4.6 mph 97 % 0.01 in
11:34 77.3 °F 76.4 °F 29.83 in Calm     97 % 0.01 in
11:39 77.4 °F 76.5 °F 29.82 in SSW 0.3 mph 2.0 mph 97 % 0.01 in
11:44 77.5 °F 76.6 °F 29.82 in SW 0.4 mph 3.5 mph 97 % 0.01 in
11:49 77.7 °F 76.8 °F 29.81 in SW 0.4 mph 2.3 mph 97 % 0.01 in
11:54 78.0 °F 77.1 °F 29.81 in SSW 1.1 mph 3.5 mph 97 % 0.01 in
11:59 78.0 °F 77.1 °F 29.81 in SW 0.4 mph 2.3 mph 97 % 0.01 in
12:04 78.1 °F 77.2 °F 29.81 in West 0.4 mph 3.0 mph 97 % 0.01 in
12:09 78.5 °F 77.6 °F 29.81 in WSW 0.9 mph 2.0 mph 97 % 0.01 in
12:14 79.3 °F 78.7 °F 29.80 in SW 0.4 mph 1.2 mph 98 % 0.00 in
12:19 79.6 °F 79.0 °F 29.80 in SSW 0.7 mph 3.5 mph 98 % 0.00 in
12:25 79.5 °F 78.6 °F 29.80 in WSW 3.3 mph 6.9 mph 97 % 0.00 in
12:30 79.6 °F 78.7 °F 29.80 in South 1.4 mph 3.5 mph 97 % 0.00 in
12:35 79.5 °F 78.6 °F 29.80 in South 0.6 mph 1.2 mph 97 % 0.00 in
12:40 79.4 °F 78.5 °F 29.80 in SSW 0.7 mph 4.6 mph 97 % 0.00 in
12:45 79.5 °F 78.6 °F 29.80 in SW 1.1 mph 3.5 mph 97 % 0.00 in
12:50 79.7 °F 78.8 °F 29.80 in SW 2.9 mph 3.5 mph 97 % 0.00 in
12:55 79.8 °F 78.9 °F 29.80 in SSE 0.4 mph 2.0 mph 97 % 0.00 in
13:00 79.8 °F 78.6 °F 29.80 in SW 1.3 mph 4.6 mph 96 % 0.00 in
13:05 79.9 °F 78.7 °F 29.79 in SW 4.0 mph 10.4 mph 96 % 0.00 in
13:10 80.1 °F 78.9 °F 29.79 in South 2.3 mph 4.6 mph 96 % 0.00 in
13:15 80.1 °F 78.5 °F 29.79 in SSW 0.7 mph 3.5 mph 95 % 0.00 in
13:20 80.5 °F 78.9 °F 29.79 in WSW 1.8 mph 3.5 mph 95 % 0.00 in
13:25 80.9 °F 79.0 °F 29.79 in ESE 1.7 mph 3.5 mph 94 % 0.00 in
13:30 81.1 °F 78.9 °F 29.79 in WSW 2.4 mph 6.9 mph 93 % 0.00 in
13:35 81.3 °F 79.1 °F 29.79 in SSW 2.9 mph 5.8 mph 93 % 0.00 in
13:40 81.4 °F 78.5 °F 29.79 in WSW 3.4 mph 6.0 mph 91 % 0.00 in
13:45 81.5 °F 78.6 °F 29.78 in SSW 0.7 mph 3.5 mph 91 % 0.00 in
13:50 81.4 °F 78.2 °F 29.78 in SSW 0.6 mph 3.5 mph 90 % 0.00 in
13:55 81.2 °F 77.6 °F 29.78 in SSE 0.8 mph 5.8 mph 89 % 0.00 in
14:00 81.2 °F 78.0 °F 29.78 in SSW 1.4 mph 3.5 mph 90 % 0.00 in
14:05 81.1 °F 77.9 °F 29.78 in SW 1.5 mph 4.6 mph 90 % 0.00 in
14:10 81.1 °F 77.9 °F 29.78 in SW 3.4 mph 9.0 mph 90 % 0.00 in
14:15 81.0 °F 77.8 °F 29.77 in SSW 1.6 mph 4.6 mph 90 % 0.00 in
14:20 81.2 °F 78.3 °F 29.78 in SSW 0.1 mph 4.6 mph 91 % 0.00 in
14:25 81.1 °F 77.9 °F 29.77 in SW 0.4 mph 3.5 mph 90 % 0.00 in
14:31 81.1 °F 77.9 °F 29.77 in SW 2.0 mph 6.0 mph 90 % 0.00 in
14:36 81.0 °F 77.4 °F 29.77 in SSW 5.0 mph 8.0 mph 89 % 0.00 in
14:41 80.9 °F 77.4 °F 29.77 in SSW 2.0 mph 8.0 mph 89 % 0.00 in
14:46 80.9 °F 77.4 °F 29.77 in SSW 1.0 mph 8.0 mph 89 % 0.00 in
14:51 81.0 °F 77.8 °F 29.76 in SW 2.0 mph 5.0 mph 90 % 0.00 in
14:56 81.0 °F 77.8 °F 29.76 in SW 3.0 mph 7.0 mph 90 % 0.00 in
15:01 81.1 °F 77.9 °F 29.76 in SSW 2.1 mph 5.8 mph 90 % 0.00 in
15:06 81.1 °F 77.9 °F 29.76 in SW 5.0 mph 9.0 mph 90 % 0.00 in
15:11 81.2 °F 78.0 °F 29.76 in Calm   3.0 mph 90 % 0.00 in
15:16 81.5 °F 78.6 °F 29.76 in South 1.0 mph 4.0 mph 91 % 0.00 in
15:21 81.9 °F 79.0 °F 29.75 in SSW 3.0 mph 12.0 mph 91 % 0.00 in
15:26 82.3 °F 78.7 °F 29.75 in SSW 2.4 mph 4.0 mph 89 % 0.00 in
15:31 82.5 °F 78.2 °F 29.75 in South 1.0 mph 7.0 mph 87 % 0.00 in
15:36 82.7 °F 78.1 °F 29.75 in South 1.0 mph 12.0 mph 86 % 0.00 in
15:41 83.0 °F 78.7 °F 29.75 in SSW 2.0 mph 6.0 mph 87 % 0.00 in
15:46 83.3 °F 78.7 °F 29.74 in SSW 3.0 mph 7.0 mph 86 % 0.00 in
15:51 83.5 °F 78.5 °F 29.74 in South 2.0 mph 5.0 mph 85 % 0.00 in
15:56 83.8 °F 78.8 °F 29.74 in SSW 6.0 mph 12.0 mph 85 % 0.00 in
16:01 84.1 °F 78.7 °F 29.74 in SSW 1.8 mph 5.0 mph 84 % 0.00 in
16:06 84.2 °F 78.5 °F 29.74 in SSW 4.6 mph 9.0 mph 83 % 0.00 in
16:11 84.1 °F 78.0 °F 29.74 in SSE 1.3 mph 3.5 mph 82 % 0.00 in
16:16 84.0 °F 78.3 °F 29.74 in WSW 2.3 mph 5.8 mph 83 % 0.00 in
16:21 83.9 °F 78.2 °F 29.73 in South 0.3 mph 2.3 mph 83 % 0.00 in
16:26 83.6 °F 77.9 °F 29.73 in SE 0.7 mph 3.5 mph 83 % 0.00 in
16:31 83.1 °F 77.8 °F 29.73 in South 0.8 mph 3.5 mph 84 % 0.00 in
16:36 82.7 °F 77.7 °F 29.73 in SW 1.9 mph 3.5 mph 85 % 0.00 in
16:41 82.4 °F 77.4 °F 29.73 in SSE 1.9 mph 3.5 mph 85 % 0.00 in
16:46 82.1 °F 77.5 °F 29.74 in SSW 0.8 mph 4.0 mph 86 % 0.00 in
16:51 81.8 °F 77.2 °F 29.73 in ESE 0.9 mph 3.5 mph 86 % 0.00 in
16:56 81.4 °F 77.2 °F 29.73 in SSE 2.2 mph 4.0 mph 87 % 0.00 in
17:01 81.0 °F 77.1 °F 29.73 in SE 0.4 mph 2.3 mph 88 % 0.00 in
17:06 80.8 °F 76.9 °F 29.74 in SW 2.1 mph 4.6 mph 88 % 0.00 in
17:11 80.7 °F 77.2 °F 29.73 in SSW 1.0 mph 2.3 mph 89 % 0.00 in
17:16 80.5 °F 77.0 °F 29.73 in South 2.3 mph 4.6 mph 89 % 0.00 in
17:21 80.3 °F 76.8 °F 29.73 in WSW 0.4 mph 2.3 mph 89 % 0.00 in
17:26 80.1 °F 76.6 °F 29.72 in South 2.6 mph 3.5 mph 89 % 0.00 in
17:31 80.0 °F 76.8 °F 29.73 in South 0.4 mph 3.5 mph 90 % 0.00 in
17:36 79.8 °F 76.6 °F 29.73 in South 1.0 mph 3.5 mph 90 % 0.00 in
17:41 79.7 °F 76.5 °F 29.73 in SSE 0.3 mph 3.5 mph 90 % 0.00 in
17:46 79.6 °F 76.7 °F 29.74 in SW 2.5 mph 4.6 mph 91 % 0.00 in
17:51 79.6 °F 76.7 °F 29.75 in ESE 1.0 mph 3.5 mph 91 % 0.00 in
17:56 79.5 °F 76.6 °F 29.74 in WSW 0.3 mph 3.5 mph 91 % 0.00 in
18:01 79.4 °F 76.5 °F 29.74 in South 0.4 mph 3.5 mph 91 % 0.00 in
18:07 79.3 °F 76.4 °F 29.75 in SW 1.9 mph 3.5 mph 91 % 0.00 in
18:12 79.3 °F 76.4 °F 29.75 in South 1.2 mph 3.5 mph 91 % 0.00 in
18:17 79.2 °F 76.7 °F 29.75 in South 1.2 mph 3.5 mph 92 % 0.00 in
18:22 79.2 °F 76.7 °F 29.75 in SSW 3.6 mph 5.0 mph 92 % 0.00 in
18:27 79.1 °F 76.6 °F 29.75 in South 5.7 mph 9.2 mph 92 % 0.00 in
18:32 79.0 °F 76.5 °F 29.76 in SSW 0.8 mph 2.3 mph 92 % 0.00 in
18:37 79.0 °F 76.5 °F 29.76 in SSE 0.5 mph 2.3 mph 92 % 0.00 in
18:42 78.9 °F 76.4 °F 29.76 in SE 0.9 mph 3.5 mph 92 % 0.00 in
18:47 78.8 °F 76.3 °F 29.75 in SSW 0.2 mph 2.3 mph 92 % 0.00 in
18:48 78.8 °F 76.3 °F 29.75 in SW 3.6 mph 6.9 mph 92 % 0.00 in
18:53 78.8 °F 76.6 °F 29.75 in SW 0.5 mph 2.0 mph 93 % 0.00 in
18:58 78.7 °F 76.5 °F 29.75 in SSE 0.5 mph 2.3 mph 93 % 0.00 in
19:03 78.7 °F 76.5 °F 29.75 in SW 1.7 mph 3.0 mph 93 % 0.00 in
19:08 78.7 °F 76.5 °F 29.75 in SE 0.3 mph 3.5 mph 93 % 0.00 in
19:09 78.7 °F 76.5 °F 29.75 in SE 0.6 mph 2.3 mph 93 % 0.00 in
19:14 78.6 °F 76.4 °F 29.75 in SSW 1.7 mph 3.5 mph 93 % 0.00 in
19:19 78.6 °F 76.4 °F 29.75 in Calm   1.2 mph 93 % 0.00 in
19:24 78.6 °F 76.4 °F 29.74 in SSW 0.3 mph 1.2 mph 93 % 0.00 in
19:30 78.6 °F 76.4 °F 29.74 in South 2.3 mph 4.6 mph 93 % 0.00 in
19:35 78.5 °F 76.6 °F 29.73 in SSE 0.2 mph 5.8 mph 94 % 0.00 in
19:40 78.5 °F 76.6 °F 29.73 in SSE 0.1 mph 2.3 mph 94 % 0.00 in
19:45 78.5 °F 76.6 °F 29.73 in SSE 1.1 mph 4.6 mph 94 % 0.01 in
19:50 78.5 °F 76.6 °F 29.73 in SSE 1.1 mph 3.5 mph 94 % 0.02 in
19:55 78.4 °F 76.5 °F 29.74 in South 0.3 mph 2.3 mph 94 % 0.02 in
20:00 78.4 °F 76.8 °F 29.74 in South 0.2 mph 1.2 mph 95 % 0.03 in
20:05 78.4 °F 76.8 °F 29.74 in WNW 0.2 mph 1.2 mph 95 % 0.04 in
20:10 78.4 °F 76.8 °F 29.74 in SSE 1.3 mph 3.5 mph 95 % 0.05 in
20:15 78.3 °F 76.7 °F 29.73 in SSW 0.6 mph 3.5 mph 95 % 0.06 in
20:20 78.3 °F 76.7 °F 29.73 in WSW 0.3 mph 2.3 mph 95 % 0.06 in
20:25 78.2 °F 76.6 °F 29.72 in South 0.1 mph 1.2 mph 95 % 0.08 in
20:30 78.1 °F 76.6 °F 29.72 in SSE 0.2 mph 1.2 mph 95 % 0.08 in
20:35 78.0 °F 76.5 °F 29.71 in SE 0.5 mph 3.5 mph 95 % 0.09 in
20:40 78.0 °F 76.5 °F 29.72 in SW 0.5 mph 3.5 mph 95 % 0.09 in
20:41 78.0 °F 76.5 °F 29.72 in SW 0.1 mph 2.3 mph 95 % 0.09 in
20:46 77.9 °F 76.7 °F 29.72 in SW 0.2 mph 1.2 mph 96 % 0.08 in
20:51 77.8 °F 76.6 °F 29.72 in SSE 0.1 mph 2.0 mph 96 % 0.07 in
20:56 77.8 °F 76.6 °F 29.71 in SSE 1.2 mph 3.5 mph 96 % 0.06 in
21:01 77.7 °F 76.5 °F 29.71 in SSE 0.6 mph 2.3 mph 96 % 0.06 in
21:06 77.7 °F 76.5 °F 29.71 in SSE 0.2 mph 1.2 mph 96 % 0.05 in
21:11 77.6 °F 76.4 °F 29.72 in WSW 2.0 mph 4.6 mph 96 % 0.03 in
21:16 77.6 °F 76.4 °F 29.72 in South 1.7 mph 4.0 mph 96 % 0.03 in
21:21 77.6 °F 76.4 °F 29.72 in SSW 0.4 mph 2.3 mph 96 % 0.02 in
21:26 77.6 °F 76.4 °F 29.72 in SW 0.7 mph 2.3 mph 96 % 0.01 in
21:31 77.6 °F 76.4 °F 29.73 in SW 0.3 mph 1.2 mph 96 % 0.01 in
21:36 77.6 °F 76.4 °F 29.73 in South 0.1 mph   96 % 0.00 in
21:37 77.6 °F 76.4 °F 29.73 in SSE 1.2 mph 3.5 mph 96 % 0.00 in
21:42 77.5 °F 76.3 °F 29.73 in SW 4.0 mph 6.9 mph 96 % 0.00 in
21:47 77.5 °F 76.3 °F 29.73 in East 1.0 mph 3.5 mph 96 % 0.00 in
21:52 77.3 °F 76.1 °F 29.73 in SW 0.5 mph 3.5 mph 96 % 0.00 in
21:57 77.2 °F 76.0 °F 29.73 in SSW 0.4 mph 2.3 mph 96 % 0.00 in
22:02 77.0 °F 75.5 °F 29.74 in WSW 2.9 mph 6.9 mph 95 % 0.00 in
22:07 76.6 °F 75.1 °F 29.74 in WSW 0.6 mph 5.8 mph 95 % 0.00 in
22:13 76.2 °F 74.3 °F 29.74 in SW 0.8 mph 6.9 mph 94 % 0.00 in
22:18 76.0 °F 74.1 °F 29.74 in SW 0.8 mph 5.8 mph 94 % 0.00 in
22:23 75.8 °F 73.9 °F 29.74 in SW 0.6 mph 2.0 mph 94 % 0.00 in
22:28 75.6 °F 73.8 °F 29.74 in SW 3.1 mph 5.8 mph 94 % 0.00 in
22:33 75.3 °F 73.5 °F 29.74 in WSW 4.4 mph 6.9 mph 94 % 0.00 in
22:38 75.1 °F 73.3 °F 29.75 in WSW 2.7 mph 3.5 mph 94 % 0.00 in
22:43 74.9 °F 73.1 °F 29.75 in SW 0.9 mph 3.5 mph 94 % 0.00 in
22:48 74.8 °F 73.0 °F 29.75 in Calm   3.5 mph 94 % 0.00 in
22:53 74.7 °F 72.9 °F 29.75 in Calm   2.3 mph 94 % 0.00 in
22:59 74.7 °F 72.9 °F 29.74 in Calm   1.0 mph 94 % 0.00 in
23:04 74.6 °F 72.8 °F 29.75 in Calm     94 % 0.00 in
23:09 74.5 °F 72.7 °F 29.75 in Calm     94 % 0.00 in
23:14 74.4 °F 72.6 °F 29.75 in WSW 1.1 mph 4.0 mph 94 % 0.00 in
23:19 74.4 °F 72.6 °F 29.75 in Calm     94 % 0.00 in
23:22 74.3 °F 72.5 °F 29.75 in Calm     94 % 0.00 in
23:23 74.3 °F 72.5 °F 29.75 in Calm     94 % 0.00 in
23:25 74.3 °F 72.5 °F 29.75 in Calm     94 % 0.00 in
23:30 74.2 °F 72.4 °F 29.75 in Calm     94 % 0.00 in
23:35 74.1 °F 72.3 °F 29.75 in Calm   1.2 mph 94 % 0.00 in
23:40 74.1 °F 72.3 °F 29.74 in Calm     94 % 0.00 in
23:45 74.0 °F 72.2 °F 29.75 in Calm   1.2 mph 94 % 0.00 in
23:50 74.0 °F 72.2 °F 29.74 in SW 0.6 mph 4.0 mph 94 % 0.00 in
23:55 73.9 °F 72.4 °F 29.74 in Calm     95 % 0.00 in
Crab Meadow Weather
Compliments of Weather Underground - 3 mb

Script developed by  Jim McMurry - jmcmurry@mwt.net Adapted for the template by  Wim van der Kuil - Leuven-Template.eu

Recycling: An estimated 80,000,000 Hershey's Kisses are wrapped each day, using enough aluminum foil to cover over 50 acres of space -- that's almost 40 football fields. All that foil is recyclable, but not many people realize it.